Time;durP1;ratioP1;P1;durP2;ratioP2;P2;SDS_P1;SDS_P2;PMS_P1;PMS_P2;Temp;Humidity;BMP_temperature;BMP_pressure;BME280_temperature;BME280_humidity;BME280_pressure;Samples;Min_cycle;Max_cycle;Signal;HPM_P1;HPM_P2
2023/09/20 03:55:09;;;;;;;3.90;2.22;;;;;;;14.65;100.00;100529.94;6186013;28;20100;31
2023/09/20 03:58:12;;;;;;;2.47;2.05;;;;;;;14.63;100.00;100526.62;5238629;33;33302;-83
2023/09/20 04:01:15;;;;;;;2.45;2.25;;;;;;;14.58;100.00;100518.25;5252909;33;33127;-83
2023/09/20 04:04:19;;;;;;;3.92;2.50;;;;;;;14.58;100.00;100520.97;5240512;33;33129;-83
2023/09/20 04:07:23;;;;;;;3.42;2.33;;;;;;;14.54;100.00;100511.56;5228945;33;34182;-84
2023/09/20 04:10:27;;;;;;;3.83;2.33;;;;;;;14.46;100.00;100519.81;5240278;33;33451;-84
2023/09/20 04:13:31;;;;;;;4.15;2.62;;;;;;;14.49;100.00;100514.84;5229848;33;34268;-84
2023/09/20 04:16:39;;;;;;;3.80;2.53;;;;;;;14.47;100.00;100526.91;5231402;33;34344;-84
2023/09/20 04:19:43;;;;;;;4.50;2.83;;;;;;;14.47;100.00;100529.63;5242776;33;33568;-84
2023/09/20 04:22:49;;;;;;;2.35;2.15;;;;;;;14.47;100.00;100529.63;5254984;33;35073;-84
2023/09/20 04:25:55;;;;;;;3.50;2.90;;;;;;;14.43;100.00;100531.91;5243035;33;33570;-84
2023/09/20 04:28:58;;;;;;;4.45;3.35;;;;;;;14.39;100.00;100527.91;5242351;33;34323;-84
2023/09/20 04:32:01;;;;;;;4.50;2.55;;;;;;;14.41;100.00;100536.66;5255321;33;33994;-84
2023/09/20 04:35:05;;;;;;;3.58;2.72;;;;;;;14.42;100.00;100532.06;5242254;33;34254;-89
2023/09/20 04:38:08;;;;;;;4.82;2.67;;;;;;;14.42;100.00;100541.06;5243008;33;33292;-88
2023/09/20 04:41:13;;;;;;;3.20;2.90;;;;;;;14.46;100.00;100533.38;5231489;33;33663;-88
2023/09/20 04:44:16;;;;;;;5.03;2.50;;;;;;;14.48;100.00;100544.84;5246081;33;33420;-85
2023/09/20 04:47:20;;;;;;;3.28;2.95;;;;;;;14.55;100.00;100551.16;5234145;33;34345;-84
2023/09/20 04:50:24;;;;;;;3.60;2.65;;;;;;;14.61;100.00;100558.50;5244592;33;34014;-84
2023/09/20 04:53:28;;;;;;;5.05;2.80;;;;;;;14.66;100.00;100547.06;5237914;33;33351;-84
2023/09/20 04:56:32;;;;;;;4.90;3.12;;;;;;;14.68;100.00;100558.50;5237245;33;33760;-84
2023/09/20 04:59:36;;;;;;;4.05;3.12;;;;;;;14.68;100.00;100561.22;5242746;33;33325;-84
2023/09/20 05:02:39;;;;;;;6.72;3.15;;;;;;;14.72;100.00;100552.50;5254504;33;33474;-84
2023/09/20 05:05:44;;;;;;;4.50;2.83;;;;;;;14.83;100.00;100559.25;5230974;33;33339;-84
2023/09/20 05:08:47;;;;;;;3.83;2.62;;;;;;;14.92;100.00;100562.63;5254368;33;33642;-84
2023/09/20 05:11:50;;;;;;;3.95;3.03;;;;;;;15.03;100.00;100559.31;5242463;33;34245;-84
2023/09/20 05:14:54;;;;;;;3.87;3.12;;;;;;;15.13;100.00;100562.50;5254716;33;33634;-84
2023/09/20 05:17:58;;;;;;;4.15;3.30;;;;;;;15.23;100.00;100572.13;5230709;33;34694;-84
2023/09/20 05:21:02;;;;;;;11.77;4.03;;;;;;;15.23;100.00;100567.53;5230676;33;33630;-84
2023/09/20 05:24:05;;;;;;;4.93;3.30;;;;;;;15.35;100.00;100565.87;5241568;33;34042;-84
2023/09/20 05:27:08;;;;;;;4.95;3.42;;;;;;;15.37;100.00;100573.81;5239613;33;33241;-84
2023/09/20 05:30:12;;;;;;;4.28;3.28;;;;;;;15.40;100.00;100568.81;5218234;33;34252;-84
2023/09/20 05:33:15;;;;;;;10.10;3.50;;;;;;;15.53;100.00;100568.03;5225974;33;33566;-84
2023/09/20 05:36:26;;;;;;;7.28;3.28;;;;;;;15.64;100.00;100572.84;5239919;33;33384;-84
2023/09/20 05:39:30;;;;;;;4.90;3.62;;;;;;;15.79;100.00;100578.09;5234675;33;34295;-84
2023/09/20 05:42:33;;;;;;;5.80;3.80;;;;;;;15.93;100.00;100578.97;5226596;33;34299;-83
2023/09/20 05:45:36;;;;;;;8.90;3.72;;;;;;;16.14;100.00;100585.22;5236881;33;33612;-84
2023/09/20 05:48:42;;;;;;;4.65;3.55;;;;;;;16.32;100.00;100580.84;5229620;33;33464;-84
2023/09/20 05:51:50;;;;;;;12.27;4.35;;;;;;;16.55;100.00;100583.13;5233929;33;33754;-84
2023/09/20 05:54:53;;;;;;;6.60;3.78;;;;;;;16.81;100.00;100580.56;5224829;34;34207;-84
2023/09/20 05:57:56;;;;;;;7.18;4.03;;;;;;;16.95;100.00;100593.06;5215200;34;33272;-84
2023/09/20 06:01:00;;;;;;;10.45;3.90;;;;;;;17.05;100.00;100595.31;5222953;34;33840;-84
2023/09/20 06:04:04;;;;;;;5.40;3.47;;;;;;;17.27;100.00;100595.88;5223180;34;33651;-84
2023/09/20 06:07:07;;;;;;;7.43;3.85;;;;;;;17.51;100.00;100589.66;5235884;33;33572;-84
2023/09/20 06:10:11;;;;;;;7.25;3.90;;;;;;;17.58;100.00;100586.91;5242201;33;33968;-84
2023/09/20 06:13:14;;;;;;;6.97;3.95;;;;;;;17.80;100.00;100584.69;5251273;33;34019;-84
2023/09/20 06:16:17;;;;;;;8.45;4.03;;;;;;;17.85;100.00;100593.06;5228983;33;33652;-84
2023/09/20 06:19:20;;;;;;;5.87;3.83;;;;;;;18.03;100.00;100595.00;5242339;33;33652;-84
2023/09/20 06:22:29;;;;;;;7.82;3.72;;;;;;;18.16;100.00;100599.50;5257332;33;36428;-84
2023/09/20 06:25:34;;;;;;;11.43;4.22;;;;;;;18.28;100.00;100603.19;5253355;33;33737;-83
2023/09/20 06:28:37;;;;;;;8.52;3.80;;;;;;;18.31;100.00;100606.31;5235892;33;33587;-84
2023/09/20 06:31:40;;;;;;;6.43;3.50;;;;;;;18.50;100.00;100615.34;5232463;33;33459;-88
2023/09/20 06:34:43;;;;;;;5.03;3.97;;;;;;;18.51;100.00;100611.56;5223318;34;33582;-88
2023/09/20 06:38:00;;;;;;;11.35;4.12;;;;;;;18.43;100.00;100605.56;5225149;34;33707;-84
2023/09/20 06:41:05;;;;;;;9.90;3.90;;;;;;;18.57;100.00;100612.56;5220004;33;33427;-86
2023/09/20 06:44:08;;;;;;;8.77;4.10;;;;;;;18.85;100.00;100611.25;5222273;33;34151;-86
2023/09/20 06:47:11;;;;;;;6.65;3.80;;;;;;;19.29;100.00;100620.19;5231347;34;34552;-84
2023/09/20 06:50:14;;;;;;;6.40;3.83;;;;;;;19.69;100.00;100620.53;5237790;33;34254;-84
2023/09/20 06:53:18;;;;;;;5.90;3.47;;;;;;;20.04;100.00;100620.63;5265718;33;34493;-84
2023/09/20 06:56:21;;;;;;;9.40;3.55;;;;;;;20.43;100.00;100620.19;5246075;33;277526;-84
2023/09/20 06:59:26;;;;;;;7.60;3.30;;;;;;;20.67;100.00;100605.47;5251093;33;33721;-84
2023/09/20 07:02:29;;;;;;;5.03;2.92;;;;;;;20.57;100.00;100605.25;5251627;33;33829;-84
2023/09/20 07:05:33;;;;;;;4.47;3.00;;;;;;;20.63;100.00;100609.78;5234302;33;33968;-84
2023/09/20 07:08:36;;;;;;;6.93;3.40;;;;;;;20.76;100.00;100622.34;5234697;33;33731;-84
2023/09/20 07:11:39;;;;;;;7.20;3.37;;;;;;;20.71;100.00;100619.50;5231461;33;33543;-84
2023/09/20 07:14:42;;;;;;;5.70;3.15;;;;;;;20.79;100.00;100616.41;5232671;33;33256;-84
2023/09/20 07:17:58;;;;;;;8.10;2.33;;;;;;;20.92;100.00;100618.06;5238305;33;33528;-84
2023/09/20 07:21:02;;;;;;;2.40;2.10;;;;;;;20.95;100.00;100620.34;5236482;33;33566;-84
2023/09/20 07:24:10;;;;;;;2.78;2.40;;;;;;;21.02;100.00;100621.03;5236695;34;33279;-84
2023/09/20 07:27:13;;;;;;;4.53;2.83;;;;;;;21.02;100.00;100619.09;5215423;34;33750;-84
2023/09/20 07:30:21;;;;;;;10.27;2.92;;;;;;;20.98;100.00;100622.59;5224758;34;33539;-84
2023/09/20 07:33:24;;;;;;;8.98;3.10;;;;;;;21.14;100.00;100623.72;5235329;33;33101;-84
2023/09/20 07:36:34;;;;;;;7.28;3.30;;;;;;;21.17;100.00;100620.50;5239867;33;33476;-84
2023/09/20 07:39:40;;;;;;;7.25;3.42;;;;;;;21.27;100.00;100627.03;5230054;33;33294;-83
2023/09/20 07:42:43;;;;;;;8.20;3.30;;;;;;;21.36;100.00;100626.66;5220813;34;33445;-84
2023/09/20 07:45:45;;;;;;;7.60;3.40;;;;;;;21.54;100.00;100633.87;5220791;33;32460;-84
2023/09/20 07:48:50;;;;;;;9.32;3.58;;;;;;;21.67;100.00;100626.19;5245075;33;34071;-84
2023/09/20 07:51:57;;;;;;;6.25;3.50;;;;;;;21.62;100.00;100626.13;5237490;33;33576;-84
2023/09/20 07:55:04;;;;;;;4.78;3.25;;;;;;;21.73;100.00;100619.75;5226113;33;33161;-83
2023/09/20 07:58:08;;;;;;;9.05;3.90;;;;;;;21.79;100.00;100617.94;5228522;33;33697;-84
2023/09/20 08:01:21;;;;;;;5.90;3.72;;;;;;;21.78;100.00;100621.72;5242467;33;33620;-84
2023/09/20 08:04:26;;;;;;;5.43;3.50;;;;;;;21.59;100.00;100623.87;5265964;33;33715;-88
2023/09/20 08:07:29;;;;;;;7.12;3.78;;;;;;;21.49;100.00;100627.22;5248664;33;33318;-89
2023/09/20 08:10:33;;;;;;;4.25;3.28;;;;;;;21.61;100.00;100623.59;5238974;33;33254;-85
2023/09/20 08:13:35;;;;;;;4.72;3.40;;;;;;;21.73;100.00;100622.50;5222542;33;33543;-84
2023/09/20 08:16:42;;;;;;;5.82;3.53;;;;;;;21.95;100.00;100624.50;5238767;33;34168;-85
2023/09/20 08:20:08;;;;;;;9.32;3.62;;;;;;;22.17;98.09;100624.63;5234513;33;33363;-84
2023/09/20 09:00:22;;;;;;;3.25;1.50;;;;;;;23.89;80.91;100605.25;5251082;33;33873;-84
2023/09/20 09:03:27;;;;;;;4.37;1.60;;;;;;;23.98;81.92;100600.09;5248389;33;33989;-84
2023/09/20 09:06:31;;;;;;;8.73;2.55;;;;;;;24.07;81.96;100604.03;5238476;33;33576;-84
2023/09/20 09:09:34;;;;;;;2.60;1.55;;;;;;;24.27;80.47;100600.63;5247935;33;34208;-84
2023/09/20 09:12:37;;;;;;;4.03;1.70;;;;;;;24.43;82.53;100599.69;5231821;33;33873;-84
2023/09/20 09:15:41;;;;;;;1.60;1.42;;;;;;;24.51;80.91;100598.38;5235586;33;34111;-84
2023/09/20 09:18:44;;;;;;;3.45;1.50;;;;;;;24.41;80.63;100588.06;5227227;33;33607;-84
2023/09/20 09:21:47;;;;;;;2.42;1.50;;;;;;;24.63;80.09;100581.66;5223787;33;33217;-84
2023/09/20 09:24:51;;;;;;;5.25;2.00;;;;;;;24.70;78.11;100578.66;5233753;33;33191;-84
2023/09/20 09:27:54;;;;;;;3.15;1.48;;;;;;;24.83;79.01;100578.16;5230198;33;34738;-84
2023/09/20 09:30:57;;;;;;;3.65;1.48;;;;;;;24.80;78.90;100578.69;5241935;33;33402;-84
2023/09/20 09:34:01;;;;;;;2.72;1.52;;;;;;;25.05;81.38;100561.47;5238363;33;33795;-88
2023/09/20 09:37:04;;;;;;;1.85;1.00;;;;;;;25.25;78.97;100557.97;5237098;33;33252;-88
2023/09/20 09:40:17;;;;;;;3.22;1.50;;;;;;;25.28;77.35;100552.75;5235695;33;33426;-84
2023/09/20 09:43:23;;;;;;;2.55;1.55;;;;;;;25.48;77.14;100545.63;5240585;33;33564;-84
2023/09/20 09:46:27;;;;;;;4.68;1.75;;;;;;;25.56;74.18;100542.31;5229560;33;34369;-84
2023/09/20 09:49:30;;;;;;;2.40;1.10;;;;;;;25.87;73.97;100545.97;5223990;34;33190;-84
2023/09/20 09:52:38;;;;;;;3.53;1.65;;;;;;;25.93;71.62;100539.34;5217231;33;33462;-84
2023/09/20 09:55:41;;;;;;;1.20;1.10;;;;;;;26.19;70.97;100533.81;5249440;33;33132;-84
2023/09/20 09:58:45;;;;;;;2.53;1.40;;;;;;;26.50;70.46;100531.00;5249697;33;33470;-84
2023/09/20 10:01:50;;;;;;;3.70;1.20;;;;;;;26.59;69.29;100534.84;5222786;33;33466;-84
2023/09/20 10:04:59;;;;;;;2.62;1.23;;;;;;;26.66;68.98;100532.63;5231098;33;33791;-84
2023/09/20 10:08:05;;;;;;;3.15;1.35;;;;;;;26.71;68.80;100534.56;5240783;33;33333;-84
2023/09/20 10:11:09;;;;;;;3.70;1.58;;;;;;;26.85;66.99;100527.28;5249033;33;34056;-84
2023/09/20 10:14:14;;;;;;;3.90;1.23;;;;;;;27.04;66.67;100528.31;5253119;33;33918;-84
2023/09/20 10:17:21;;;;;;;2.75;1.00;;;;;;;27.06;68.64;100520.59;5237643;33;34258;-84
2023/09/20 10:20:41;;;;;;;3.33;1.12;;;;;;;26.71;67.59;100529.88;5238160;33;33575;-84
2023/09/20 10:23:47;;;;;;;1.87;1.40;;;;;;;26.75;66.99;100519.06;5241462;33;33579;-84
2023/09/20 10:26:57;;;;;;;1.00;0.95;;;;;;;26.35;68.01;100523.56;5240369;33;33579;-84
2023/09/20 10:30:09;;;;;;;1.92;1.15;;;;;;;26.17;69.26;100523.03;5253976;33;34055;-84
2023/09/20 10:33:13;;;;;;;1.80;1.08;;;;;;;26.35;67.44;100510.59;5241541;33;33355;-84
2023/09/20 10:36:28;;;;;;;1.05;1.05;;;;;;;26.58;65.12;100514.69;5224875;34;33555;-84
2023/09/20 10:39:30;;;;;;;1.92;1.20;;;;;;;26.98;64.12;100506.53;5255477;33;33085;-84
2023/09/20 10:42:50;;;;;;;1.40;1.20;;;;;;;27.20;65.02;100512.50;5245589;33;33524;-84
2023/09/20 10:45:54;;;;;;;1.40;1.30;;;;;;;27.53;64.77;100502.63;5257608;33;33413;-89
2023/09/20 10:48:57;;;;;;;1.55;1.30;;;;;;;27.45;64.05;100505.16;5241958;33;34286;-85
2023/09/20 10:52:03;;;;;;;2.17;1.40;;;;;;;26.83;65.44;100502.72;5225527;34;33483;-84
2023/09/20 10:55:28;;;;;;;2.45;1.15;;;;;;;26.90;65.53;100492.19;5237726;33;33560;-84
2023/09/20 10:58:32;;;;;;;2.25;1.35;;;;;;;27.70;60.82;100502.22;5241584;33;34307;-84
2023/09/20 11:01:35;;;;;;;1.20;1.00;;;;;;;28.57;54.62;100498.63;5259036;33;33740;-84
2023/09/20 11:04:40;;;;;;;2.92;1.35;;;;;;;28.83;53.85;100490.00;5235537;34;33719;-84
2023/09/20 11:07:43;;;;;;;3.00;1.20;;;;;;;29.53;51.63;100479.00;5244364;33;34171;-84
2023/09/20 11:10:46;;;;;;;2.60;1.15;;;;;;;29.33;52.05;100477.37;5232244;33;33483;-84
2023/09/20 11:13:50;;;;;;;3.28;1.77;;;;;;;29.98;52.89;100476.63;5227551;33;34286;-84
2023/09/20 11:16:53;;;;;;;3.28;1.50;;;;;;;30.59;48.23;100465.44;5243817;33;33596;-83
2023/09/20 11:19:58;;;;;;;1.35;1.10;;;;;;;30.66;48.63;100457.53;5233846;33;34524;-84
2023/09/20 11:23:02;;;;;;;2.00;1.02;;;;;;;31.40;47.10;100455.31;5249717;33;33526;-83
2023/09/20 11:26:06;;;;;;;1.55;0.93;;;;;;;31.09;44.85;100460.75;5268867;33;33821;-83
2023/09/20 11:29:09;;;;;;;1.10;0.98;;;;;;;31.33;43.79;100454.09;5214292;34;33998;-83
2023/09/20 11:32:15;;;;;;;1.00;0.90;;;;;;;30.42;46.14;100455.81;5247697;33;34203;-83
2023/09/20 11:35:32;;;;;;;0.95;0.90;;;;;;;30.60;44.73;100444.88;5244902;33;33502;-83
2023/09/20 11:38:36;;;;;;;1.10;1.00;;;;;;;31.99;42.13;100454.41;5241882;33;34132;-83
2023/09/20 11:41:42;;;;;;;2.00;0.85;;;;;;;33.30;37.97;100447.22;5232815;33;34816;-83
2023/09/20 11:44:55;;;;;;;2.30;0.95;;;;;;;33.72;35.25;100444.72;5253944;33;34266;-83
2023/09/20 11:48:15;;;;;;;2.15;1.05;;;;;;;35.05;32.08;100446.28;5253418;33;33594;-83
2023/09/20 11:51:18;;;;;;;2.05;0.88;;;;;;;36.45;29.75;100442.84;5244656;33;33111;-83
2023/09/20 11:54:28;;;;;;;2.12;0.90;;;;;;;35.21;31.28;100441.69;5227920;33;34335;-84
2023/09/20 11:57:35;;;;;;;1.85;0.75;;;;;;;35.99;29.55;100437.28;5223863;33;34763;-87
2023/09/20 12:00:43;;;;;;;1.35;1.25;;;;;;;36.44;30.65;100432.78;5243901;33;33775;-88
2023/09/20 12:03:46;;;;;;;1.60;0.80;;;;;;;35.36;31.23;100428.22;5245528;33;33757;-84
2023/09/20 12:06:51;;;;;;;1.02;0.80;;;;;;;33.90;33.26;100421.16;5255569;33;33054;-84
2023/09/20 12:09:55;;;;;;;1.92;0.70;;;;;;;34.18;33.27;100417.97;5243442;33;33834;-85
2023/09/20 12:12:59;;;;;;;3.05;0.82;;;;;;;36.24;28.58;100418.53;5232794;33;33636;-84
2023/09/20 12:16:02;;;;;;;1.25;0.80;;;;;;;37.84;26.61;100406.84;5231765;33;33466;-83
2023/09/20 12:19:05;;;;;;;1.65;0.70;;;;;;;39.08;25.61;100413.84;5256202;33;34396;-84
2023/09/20 12:22:12;;;;;;;1.87;0.80;;;;;;;38.88;25.12;100409.41;5264218;33;33189;-84
2023/09/20 12:25:16;;;;;;;0.62;0.55;;;;;;;40.37;22.91;100399.31;5259891;33;33341;-84
2023/09/20 12:28:19;;;;;;;2.62;0.70;;;;;;;41.29;21.68;100417.94;5259950;33;33085;-84
2023/09/20 12:31:26;;;;;;;2.33;0.90;;;;;;;42.13;20.94;100410.72;5258778;33;32221;-84
2023/09/20 12:34:29;;;;;;;0.73;0.47;;;;;;;42.38;21.26;100422.22;5259104;33;34502;-83
2023/09/20 12:37:31;;;;;;;1.50;0.75;;;;;;;42.82;19.74;100395.81;5259744;33;33655;-83
2023/09/20 12:40:35;;;;;;;1.00;0.80;;;;;;;42.10;20.38;100395.34;5271279;33;33454;-84
2023/09/20 12:43:38;;;;;;;0.80;0.80;;;;;;;40.88;21.35;100389.56;5272611;33;33964;-83
2023/09/20 12:46:44;;;;;;;1.42;0.60;;;;;;;39.98;22.67;100388.19;5260667;33;33231;-83
2023/09/20 12:49:47;;;;;;;1.10;0.88;;;;;;;39.96;22.02;100384.09;5272301;33;34235;-83
2023/09/20 12:52:50;;;;;;;0.73;0.55;;;;;;;40.36;22.60;100380.75;5264429;33;33273;-84
2023/09/20 12:55:53;;;;;;;1.40;0.70;;;;;;;42.01;20.28;100371.44;5262378;33;33858;-84
2023/09/20 12:58:57;;;;;;;0.95;0.70;;;;;;;41.64;21.04;100361.78;5253054;33;34340;-83
2023/09/20 13:02:00;;;;;;;1.00;0.80;;;;;;;41.12;21.84;100355.16;5257136;33;33568;-83
2023/09/20 13:05:03;;;;;;;0.80;0.60;;;;;;;42.32;20.77;100358.72;5243777;33;33986;-83
2023/09/20 13:08:06;;;;;;;0.80;0.65;;;;;;;42.42;20.92;100360.81;5230932;33;33427;-83
2023/09/20 13:11:10;;;;;;;0.73;0.40;;;;;;;44.20;19.18;100362.50;5242548;33;33961;-84
2023/09/20 13:14:19;;;;;;;1.58;0.70;;;;;;;44.23;18.29;100356.00;5237790;33;33392;-84
2023/09/20 13:17:22;;;;;;;2.15;0.80;;;;;;;43.63;19.22;100351.16;5245123;33;33471;-84
2023/09/20 13:20:27;;;;;;;0.85;0.68;;;;;;;43.91;19.29;100336.97;5236968;33;33501;-83
2023/09/20 13:23:31;;;;;;;3.08;0.80;;;;;;;41.82;20.62;100342.16;5226975;33;33321;-84
2023/09/20 13:26:36;;;;;;;1.80;0.52;;;;;;;42.54;19.82;100337.03;5238078;34;34040;-84
2023/09/20 13:29:40;;;;;;;1.45;0.80;;;;;;;43.88;18.90;100326.44;5225634;34;33236;-83
2023/09/20 13:32:44;;;;;;;2.00;0.60;;;;;;;44.18;19.08;100322.34;5213796;34;33641;-84
2023/09/20 13:35:47;;;;;;;1.42;0.95;;;;;;;44.66;18.03;100318.97;5224250;34;33244;-83
2023/09/20 13:38:51;;;;;;;0.50;0.50;;;;;;;42.63;19.89;100311.19;5248975;33;33557;-83
2023/09/20 13:41:54;;;;;;;0.80;0.62;;;;;;;42.51;19.79;100313.16;5243537;33;33110;-83
2023/09/20 13:45:03;;;;;;;0.88;0.60;;;;;;;42.53;19.75;100307.06;5241705;33;33416;-84
2023/09/20 13:48:06;;;;;;;0.70;0.68;;;;;;;42.14;20.22;100311.28;5227311;33;33323;-87
2023/09/20 13:51:16;;;;;;;1.00;0.70;;;;;;;42.50;20.07;100310.69;5230019;33;33833;-88
2023/09/20 13:54:19;;;;;;;0.90;0.70;;;;;;;41.70;20.79;100314.19;5237619;34;33118;-84
2023/09/20 13:57:22;;;;;;;2.55;0.73;;;;;;;41.14;21.16;100307.59;5240313;33;35031;-84
2023/09/20 14:00:28;;;;;;;2.62;0.60;;;;;;;39.99;22.17;100312.84;5253831;33;33337;-84
2023/09/20 14:03:34;;;;;;;1.60;0.80;;;;;;;38.17;24.24;100312.88;5243093;33;33688;-84
2023/09/20 14:06:38;;;;;;;1.52;0.82;;;;;;;35.78;27.07;100311.31;5253681;33;33511;-84
2023/09/20 14:09:42;;;;;;;1.08;0.50;;;;;;;33.80;29.72;100307.84;5254367;33;33314;-84
2023/09/20 14:12:51;;;;;;;1.05;0.95;;;;;;;33.33;30.30;100304.25;5242042;33;33783;-84
2023/09/20 14:15:54;;;;;;;0.70;0.70;;;;;;;32.04;32.29;100304.69;5254389;33;33223;-84
2023/09/20 14:18:57;;;;;;;1.33;0.90;;;;;;;31.33;33.99;100301.91;5241760;33;33595;-84
2023/09/20 14:22:00;;;;;;;0.80;0.80;;;;;;;30.60;34.61;100297.59;5242126;33;34388;-83
2023/09/20 14:25:11;;;;;;;1.05;0.60;;;;;;;29.91;36.01;100295.75;5241230;33;34145;-83
2023/09/20 14:28:18;;;;;;;1.55;1.10;;;;;;;29.36;37.60;100288.19;5254232;33;33600;-84
2023/09/20 14:31:21;;;;;;;0.95;0.75;;;;;;;28.92;39.02;100285.88;5254418;33;33462;-83
2023/09/20 14:34:24;;;;;;;2.05;0.90;;;;;;;28.67;39.38;100287.13;5254392;33;33142;-84
2023/09/20 14:37:27;;;;;;;2.78;0.90;;;;;;;28.14;41.05;100284.53;5230824;33;33558;-84
2023/09/20 14:40:32;;;;;;;2.30;0.80;;;;;;;27.95;41.18;100290.03;5254228;33;33956;-83
2023/09/20 14:43:36;;;;;;;1.40;1.00;;;;;;;27.67;42.33;100281.50;5231091;33;34365;-83
2023/09/20 14:46:40;;;;;;;0.62;0.62;;;;;;;27.39;43.64;100280.41;5250212;33;33592;-84
2023/09/20 14:49:43;;;;;;;2.85;0.98;;;;;;;27.43;43.45;100278.72;5258854;33;34513;-83
2023/09/20 14:52:47;;;;;;;2.60;0.82;;;;;;;27.48;42.28;100275.06;5248043;33;33554;-83
2023/09/20 14:55:52;;;;;;;2.10;0.98;;;;;;;27.50;42.20;100276.44;5273673;33;33762;-83
2023/09/20 14:58:56;;;;;;;3.10;0.85;;;;;;;27.56;41.82;100277.19;5275097;33;34269;-83
2023/09/20 15:01:59;;;;;;;2.90;1.12;;;;;;;27.55;41.36;100278.31;5271066;33;34443;-83
2023/09/20 15:05:03;;;;;;;1.00;0.90;;;;;;;27.45;41.78;100278.44;5272592;33;33205;-84
2023/09/20 15:08:08;;;;;;;3.12;0.93;;;;;;;27.28;43.33;100285.22;5259100;33;33555;-84
2023/09/20 15:11:12;;;;;;;2.25;1.05;;;;;;;27.18;42.08;100279.81;5270036;33;33330;-84
2023/09/20 15:14:15;;;;;;;0.88;0.80;;;;;;;26.94;42.53;100273.34;5268919;33;33174;-83
2023/09/20 15:17:18;;;;;;;1.12;0.98;;;;;;;26.90;41.79;100273.09;5267643;33;33269;-84
2023/09/20 15:20:21;;;;;;;0.80;0.73;;;;;;;26.79;43.10;100274.28;5258429;33;33621;-84
2023/09/20 15:23:24;;;;;;;1.50;0.85;;;;;;;26.52;44.26;100261.78;5270195;33;34052;-84
2023/09/20 15:26:29;;;;;;;2.22;0.82;;;;;;;26.45;42.78;100267.63;5270089;33;34485;-84
2023/09/20 15:29:32;;;;;;;1.98;1.00;;;;;;;26.43;43.12;100263.50;5267860;33;33153;-83
2023/09/20 15:32:37;;;;;;;1.67;1.00;;;;;;;26.36;42.27;100271.28;5240679;33;34346;-84
2023/09/20 15:35:40;;;;;;;1.08;0.82;;;;;;;26.29;42.10;100268.81;5269502;33;34113;-87
2023/09/20 15:38:46;;;;;;;2.40;0.82;;;;;;;26.28;41.75;100261.66;5258099;33;34252;-87
2023/09/20 15:41:49;;;;;;;2.42;0.98;;;;;;;26.21;42.32;100263.91;5258349;33;33340;-88
2023/09/20 15:44:54;;;;;;;3.03;1.20;;;;;;;26.08;42.73;100253.50;5257729;33;33117;-85
2023/09/20 15:47:57;;;;;;;1.15;1.00;;;;;;;25.92;43.46;100259.09;5267453;33;33630;-84
2023/09/20 15:51:02;;;;;;;0.80;0.80;;;;;;;25.81;43.47;100251.94;5270610;33;33129;-84
2023/09/20 15:54:05;;;;;;;2.33;0.90;;;;;;;25.67;43.58;100268.25;5270659;33;33245;-84
2023/09/20 15:57:11;;;;;;;5.60;0.90;;;;;;;25.64;43.22;100254.19;5257472;33;32965;-84
2023/09/20 16:00:15;;;;;;;0.98;0.77;;;;;;;25.60;43.60;100255.88;5269304;33;33699;-84
